Time;durP1;ratioP1;P1;durP2;ratioP2;P2;SDS_P1;SDS_P2;PMS_P1;PMS_P2;Temp;Humidity;BMP_temperature;BMP_pressure;BME280_temperature;BME280_humidity;BME280_pressure;Samples;Min_cycle;Max_cycle;Signal;HPM_P1;HPM_P2
2022/09/05 00:00:43;;;;;;;10.95;3.97;;;20.40;99.90;;;;;;5029969;28;20044;-68
2022/09/05 00:04:14;;;;;;;9.48;4.35;;;20.40;99.90;;;;;;5029428;28;20056;-69
2022/09/05 00:07:54;;;;;;;9.93;3.78;;;20.30;99.90;;;;;;5029664;28;20053;-68
2022/09/05 00:11:18;;;;;;;10.15;3.80;;;20.30;99.90;;;;;;5029745;28;20044;-69
2022/09/05 00:14:44;;;;;;;14.10;4.13;;;20.30;99.90;;;;;;5029708;28;20048;-68
2022/09/05 00:18:15;;;;;;;8.85;4.03;;;20.40;99.90;;;;;;5030140;28;20056;-68
2022/09/05 00:21:22;;;;;;;14.20;3.50;;;20.40;99.90;;;;;;5029851;28;20388;-69
2022/09/05 00:24:32;;;;;;;5.20;3.80;;;20.50;99.90;;;;;;5029212;28;20488;-69
2022/09/05 00:28:01;;;;;;;13.63;4.07;;;20.50;99.90;;;;;;5029529;28;20036;-68
2022/09/05 00:31:24;;;;;;;7.07;4.03;;;20.60;99.90;;;;;;5029797;28;20041;-69
2022/09/05 00:34:56;;;;;;;6.53;3.60;;;20.60;99.90;;;;;;5029384;28;20048;-69
2022/09/05 00:38:14;;;;;;;9.70;4.05;;;20.60;99.90;;;;;;5031051;28;20052;-69
2022/09/05 00:41:38;;;;;;;8.65;3.72;;;20.50;99.90;;;;;;5033439;28;20048;-69
2022/09/05 00:44:59;;;;;;;6.75;3.67;;;20.30;99.90;;;;;;5033409;28;20129;-69
2022/09/05 00:48:27;;;;;;;6.68;3.65;;;20.30;99.90;;;;;;5033307;28;20052;-69
2022/09/05 00:51:58;;;;;;;8.75;3.40;;;20.20;99.90;;;;;;5033467;28;20049;-69
2022/09/05 00:55:38;;;;;;;10.15;4.32;;;20.20;99.90;;;;;;5032274;28;20049;-69
2022/09/05 00:59:19;;;;;;;5.47;4.20;;;19.80;99.90;;;;;;5033237;28;20491;-69
2022/09/05 01:03:19;;;;;;;7.47;4.75;;;19.80;99.90;;;;;;5033143;28;20044;-69
2022/09/05 01:06:55;;;;;;;12.30;4.93;;;19.70;99.90;;;;;;5033192;28;20044;-69
2022/09/05 01:10:36;;;;;;;8.90;4.03;;;19.70;99.90;;;;;;5033631;28;20244;-68
2022/09/05 01:14:18;;;;;;;9.02;4.18;;;19.60;99.90;;;;;;5032768;28;20049;-68
2022/09/05 01:17:36;;;;;;;10.40;4.22;;;19.40;99.90;;;;;;5032824;28;20048;-69
2022/09/05 01:20:57;;;;;;;10.00;4.40;;;19.40;99.90;;;;;;5033032;28;20045;-69
2022/09/05 01:24:38;;;;;;;10.77;3.92;;;19.40;99.90;;;;;;5032474;28;20048;-69
2022/09/05 01:27:54;;;;;;;10.88;4.50;;;19.40;99.90;;;;;;5033008;28;20516;-69
2022/09/05 01:31:39;;;;;;;7.30;4.30;;;19.40;99.90;;;;;;5033125;28;20036;-68
2022/09/05 01:35:21;;;;;;;8.52;4.40;;;19.30;99.90;;;;;;5032282;28;20511;-69
2022/09/05 01:38:58;;;;;;;6.82;4.43;;;19.20;99.90;;;;;;5032639;28;20048;-68
2022/09/05 01:42:11;;;;;;;7.70;4.38;;;19.30;99.90;;;;;;5032292;28;20048;-68
2022/09/05 01:50:01;;;;;;;13.48;4.97;;;19.30;99.90;;;;;;5031411;28;20048;-68
2022/09/05 01:53:28;;;;;;;7.20;4.60;;;19.30;99.90;;;;;;5032286;28;20053;-68
2022/09/05 02:01:01;;;;;;;11.65;5.32;;;19.30;99.90;;;;;;5032037;28;20052;-69
2022/09/05 02:04:35;;;;;;;16.13;6.03;;;19.30;99.90;;;;;;5032298;28;20060;-68
2022/09/05 02:08:01;;;;;;;13.68;5.00;;;19.30;99.90;;;;;;5032146;28;20057;-69
2022/09/05 02:11:07;;;;;;;13.93;5.00;;;19.30;99.90;;;;;;5031887;28;20052;-69
2022/09/05 02:14:38;;;;;;;11.82;5.22;;;19.30;99.90;;;;;;5031441;28;20503;-69
2022/09/05 02:17:42;;;;;;;7.82;5.30;;;19.10;99.90;;;;;;5032027;28;20052;-69
2022/09/05 02:20:55;;;;;;;8.18;4.82;;;19.00;99.90;;;;;;5031015;28;20060;-68
2022/09/05 02:24:25;;;;;;;9.88;5.35;;;19.00;99.90;;;;;;5031574;28;20060;-68
2022/09/05 02:27:38;;;;;;;12.43;5.10;;;19.10;99.90;;;;;;5031559;28;20044;-69
2022/09/05 02:30:48;;;;;;;11.77;4.93;;;19.20;99.90;;;;;;5031827;28;20040;-68
2022/09/05 02:34:18;;;;;;;9.48;5.05;;;19.20;99.90;;;;;;5031166;28;20040;-69
2022/09/05 02:37:31;;;;;;;7.55;4.80;;;19.20;99.90;;;;;;5030926;28;20048;-69
2022/09/05 02:40:35;;;;;;;7.97;4.65;;;19.30;99.90;;;;;;5031755;28;20055;-69
2022/09/05 02:43:45;;;;;;;9.82;5.00;;;19.30;99.90;;;;;;5030602;28;20052;-69
2022/09/05 02:47:17;;;;;;;13.10;5.18;;;19.30;99.90;;;;;;5031344;28;20045;-69
2022/09/05 02:50:29;;;;;;;22.33;11.38;;;19.20;99.90;;;;;;5031438;28;20508;-69
2022/09/05 02:57:26;;;;;;;14.13;9.80;;;19.20;99.90;;;;;;5031263;28;20052;-68
2022/09/05 03:01:31;;;;;;;9.88;6.32;;;19.20;99.90;;;;;;5030684;28;20048;-69
2022/09/05 03:04:54;;;;;;;13.88;7.18;;;19.20;99.90;;;;;;5027178;28;20048;-69
2022/09/05 03:08:19;;;;;;;11.68;6.47;;;19.20;99.90;;;;;;5031067;28;20033;-69
2022/09/05 03:12:01;;;;;;;13.88;6.82;;;19.10;99.90;;;;;;5031189;28;20052;-68
2022/09/05 03:15:43;;;;;;;14.40;6.20;;;19.00;99.90;;;;;;5030601;28;20049;-69
2022/09/05 03:19:31;;;;;;;9.40;6.20;;;18.90;99.90;;;;;;5030622;28;20056;-69
2022/09/05 03:23:06;;;;;;;11.60;6.70;;;18.80;99.90;;;;;;4990712;28;20049;-68
2022/09/05 03:30:23;;;;;;;20.83;8.18;;;18.70;99.90;;;;;;5031145;28;20052;-69
2022/09/05 03:34:02;;;;;;;15.07;8.25;;;18.70;99.90;;;;;;5030273;28;20056;-69
2022/09/05 03:37:31;;;;;;;14.20;7.88;;;18.70;99.90;;;;;;5030549;28;20499;-69
2022/09/05 03:41:05;;;;;;;13.15;7.30;;;18.60;99.90;;;;;;5030594;28;20045;-69
2022/09/05 03:44:37;;;;;;;12.13;7.07;;;18.60;99.90;;;;;;5029598;28;20048;-69
2022/09/05 03:47:59;;;;;;;9.10;6.90;;;18.50;99.90;;;;;;5030304;28;20045;-68
2022/09/05 03:51:24;;;;;;;11.40;6.97;;;18.40;99.90;;;;;;5030266;28;20040;-69
2022/09/05 03:55:14;;;;;;;14.48;7.40;;;18.40;99.90;;;;;;5030063;28;20036;-69
2022/09/05 03:58:39;;;;;;;11.63;8.13;;;18.40;99.90;;;;;;5030407;28;20056;-69
2022/09/05 04:01:53;;;;;;;15.73;8.05;;;18.40;99.90;;;;;;5030036;28;20040;-69
2022/09/05 04:05:03;;;;;;;13.25;7.78;;;18.20;99.90;;;;;;5029554;28;20037;-69
2022/09/05 04:08:13;;;;;;;12.90;7.93;;;18.20;99.90;;;;;;5030203;28;20052;-68
2022/09/05 04:11:32;;;;;;;16.52;8.07;;;18.10;99.90;;;;;;5029847;28;20049;-69
2022/09/05 04:15:13;;;;;;;14.45;7.55;;;18.10;99.90;;;;;;5029238;28;20044;-69
2022/09/05 04:18:17;;;;;;;21.52;9.00;;;18.10;99.90;;;;;;5030080;28;20064;-69
2022/09/05 04:21:53;;;;;;;16.08;8.32;;;18.10;99.90;;;;;;5029836;28;20396;-69
2022/09/05 04:25:02;;;;;;;18.15;11.20;;;18.10;99.90;;;;;;5029528;28;20049;-69
2022/09/05 04:28:31;;;;;;;22.42;13.77;;;18.20;99.90;;;;;;5029982;28;20044;-68
2022/09/05 04:31:47;;;;;;;19.85;10.98;;;18.20;99.90;;;;;;5029335;28;20511;-69
2022/09/05 04:35:27;;;;;;;16.27;10.73;;;18.10;99.90;;;;;;5030260;28;20048;-68
2022/09/05 04:38:40;;;;;;;22.23;11.23;;;18.10;99.90;;;;;;5030186;28;20048;-69
2022/09/05 04:42:20;;;;;;;19.65;9.45;;;18.10;99.90;;;;;;5030301;28;20400;-69
2022/09/05 04:45:27;;;;;;;14.00;9.20;;;18.10;99.90;;;;;;5028965;28;20048;-69
2022/09/05 04:48:41;;;;;;;15.32;9.00;;;18.10;99.90;;;;;;5029320;28;20048;-69
2022/09/05 04:52:01;;;;;;;17.35;8.65;;;18.10;99.90;;;;;;5030231;28;20424;-69
2022/09/05 04:55:09;;;;;;;16.05;8.43;;;18.10;99.90;;;;;;5030001;28;20064;-68
2022/09/05 04:58:31;;;;;;;17.63;8.93;;;18.10;99.90;;;;;;5030860;28;20053;-68
2022/09/05 05:01:46;;;;;;;13.98;8.02;;;18.20;99.90;;;;;;5030784;28;20076;-69
2022/09/05 05:04:59;;;;;;;18.80;7.30;;;18.20;99.90;;;;;;5029632;28;20053;-69
2022/09/05 05:08:21;;;;;;;16.40;7.00;;;18.30;99.90;;;;;;5030126;28;20500;-69
2022/09/05 05:11:36;;;;;;;;;;;18.30;99.90;;;;;;5030006;28;20057;-69
2022/09/05 05:14:59;;;;;;;9.95;7.22;;;18.40;99.90;;;;;;5029264;28;19909;-69
2022/09/05 05:18:17;;;;;;;8.55;6.82;;;18.50;99.90;;;;;;5029716;28;20049;-69
2022/09/05 05:21:24;;;;;;;18.83;8.32;;;18.60;99.90;;;;;;5029425;28;20044;-69
2022/09/05 05:24:43;;;;;;;11.35;7.95;;;18.40;99.90;;;;;;5028807;28;20053;-68
2022/09/05 05:28:28;;;;;;;14.57;7.32;;;18.30;99.90;;;;;;5033155;28;20048;-69
2022/09/05 05:31:51;;;;;;;13.25;6.88;;;18.40;99.90;;;;;;5032179;28;20408;-69
2022/09/05 05:35:06;;;;;;;12.18;5.93;;;20.40;99.90;;;;;;5032362;28;20052;-69
2022/09/05 05:38:15;;;;;;;11.15;5.72;;;23.30;99.90;;;;;;5033045;28;20395;-69
2022/09/05 05:41:28;;;;;;;8.13;3.70;;;25.70;99.90;;;;;;5032974;28;20084;-69
2022/09/05 05:44:54;;;;;;;11.40;4.10;;;27.40;99.90;;;;;;5031875;28;20503;-69
2022/09/05 05:48:25;;;;;;;6.45;4.05;;;28.60;99.90;;;;;;5032835;28;20393;-69
2022/09/05 05:52:08;;;;;;;10.15;3.38;;;29.60;99.90;;;;;;5032528;28;20041;-69
2022/09/05 05:55:35;;;;;;;8.20;2.80;;;31.10;99.90;;;;;;5021398;28;20040;-69
2022/09/05 05:58:50;;;;;;;10.57;2.90;;;32.00;99.90;;;;;;5033458;28;20048;-69
2022/09/05 06:02:29;;;;;;;7.45;3.28;;;31.70;99.90;;;;;;5019257;28;20037;-69
2022/09/05 06:06:06;;;;;;;6.65;2.90;;;29.90;99.90;;;;;;5029703;28;20052;-68
2022/09/05 06:09:25;;;;;;;10.70;3.67;;;29.30;99.90;;;;;;5026981;28;20057;-68
2022/09/05 06:13:10;;;;;;;6.10;3.75;;;26.90;99.90;;;;;;5018657;28;20037;-69
2022/09/05 06:16:51;;;;;;;9.23;4.07;;;24.80;99.90;;;;;;5018641;28;20040;-68
2022/09/05 06:20:26;;;;;;;9.30;4.57;;;25.90;99.90;;;;;;5024972;28;20052;-68
2022/09/05 06:23:39;;;;;;;7.15;4.35;;;27.50;99.90;;;;;;5014416;28;20048;-68
2022/09/05 06:27:05;;;;;;;7.15;4.30;;;29.40;99.90;;;;;;5021403;28;20069;-69
2022/09/05 06:30:20;;;;;;;6.95;3.90;;;30.80;99.90;;;;;;5012401;28;20044;-68
2022/09/05 06:33:58;;;;;;;8.73;3.70;;;31.80;99.90;;;;;;5015517;28;20045;-68
2022/09/05 06:37:27;;;;;;;7.22;3.40;;;31.90;99.90;;;;;;5013679;28;20057;-68
2022/09/05 06:40:58;;;;;;;12.00;3.50;;;31.80;99.90;;;;;;5019029;28;20049;-68
2022/09/05 06:44:26;;;;;;;8.35;3.40;;;32.70;99.90;;;;;;5012958;28;20057;-68
2022/09/05 06:47:34;;;;;;;6.75;2.30;;;33.10;99.90;;;;;;5015959;28;20045;-69
2022/09/05 06:51:16;;;;;;;4.93;2.85;;;33.50;99.50;;;;;;5031303;28;20056;-68
2022/09/05 06:54:22;;;;;;;6.72;2.47;;;32.80;99.70;;;;;;5012767;28;20053;-69
2022/09/05 06:58:20;;;;;;;10.68;3.03;;;32.40;99.70;;;;;;5012645;28;20037;-69
2022/09/05 07:01:30;;;;;;;5.47;2.60;;;31.70;99.90;;;;;;5021570;28;20491;-68
2022/09/05 07:08:50;;;;;;;4.13;2.30;;;29.60;99.90;;;;;;5012382;28;20041;-69
2022/09/05 07:12:33;;;;;;;6.50;2.75;;;31.00;99.90;;;;;;5016660;28;20381;-68
2022/09/05 07:15:59;;;;;;;4.28;2.25;;;32.20;99.90;;;;;;5005527;28;20045;-68
2022/09/05 07:19:28;;;;;;;6.43;2.40;;;32.10;99.70;;;;;;5012009;28;20044;-70
2022/09/05 07:22:37;;;;;;;4.18;2.40;;;30.80;99.90;;;;;;5011551;28;20122;-68
2022/09/05 07:25:47;;;;;;;2.47;2.10;;;31.20;99.90;;;;;;5013506;28;20113;-68
2022/09/05 07:28:58;;;;;;;2.85;1.98;;;32.60;99.60;;;;;;5011853;28;20049;-69
2022/09/05 07:32:05;;;;;;;4.35;2.15;;;33.60;98.70;;;;;;5020221;28;20534;-69
2022/09/05 07:35:25;;;;;;;5.75;2.35;;;32.60;98.60;;;;;;5012579;28;20049;-68
2022/09/05 07:38:33;;;;;;;4.38;2.50;;;32.00;98.90;;;;;;5015805;28;20048;-68
2022/09/05 07:41:43;;;;;;;3.13;2.30;;;31.30;99.90;;;;;;5015529;28;20052;-68
2022/09/05 07:44:58;;;;;;;4.78;2.50;;;31.10;99.90;;;;;;5029759;28;20056;-69
2022/09/05 07:48:12;;;;;;;4.65;2.00;;;31.00;99.90;;;;;;5022420;28;20049;-69
2022/09/05 07:51:22;;;;;;;4.88;2.33;;;31.30;99.90;;;;;;5022979;28;20045;-69
2022/09/05 07:54:47;;;;;;;4.05;2.40;;;31.70;99.90;;;;;;5011625;28;20053;-68
2022/09/05 08:01:38;;;;;;;5.88;2.70;;;33.30;98.20;;;;;;5016862;28;20670;-68
2022/09/05 08:04:42;;;;;;;7.35;2.67;;;34.10;97.50;;;;;;5018591;28;20041;-67
2022/09/05 08:08:00;;;;;;;4.22;2.47;;;34.30;97.20;;;;;;5017803;28;20044;-68
2022/09/05 08:11:10;;;;;;;4.90;2.10;;;34.50;97.00;;;;;;5014046;28;20052;-69
2022/09/05 08:14:29;;;;;;;3.15;2.17;;;36.60;96.00;;;;;;5023451;28;20045;-68
2022/09/05 08:18:04;;;;;;;6.32;2.15;;;38.10;93.60;;;;;;5009990;28;20405;-68
2022/09/05 08:21:30;;;;;;;3.10;1.90;;;38.80;92.40;;;;;;5016994;28;20617;-68
2022/09/05 08:24:40;;;;;;;4.32;1.83;;;38.90;92.40;;;;;;5014965;28;20049;-68
2022/09/05 08:28:01;;;;;;;8.20;2.10;;;39.40;91.40;;;;;;5022597;28;20048;-69
2022/09/05 08:31:42;;;;;;;5.25;1.80;;;39.40;90.30;;;;;;5011846;28;20056;-68
2022/09/05 08:34:58;;;;;;;6.18;2.22;;;39.50;90.70;;;;;;5010308;28;20049;-67
2022/09/05 08:38:03;;;;;;;5.45;2.10;;;40.70;88.60;;;;;;5019018;28;20052;-68
2022/09/05 08:41:25;;;;;;;6.95;1.95;;;38.70;88.80;;;;;;5017030;28;20049;-69
2022/09/05 08:44:54;;;;;;;7.13;1.88;;;39.00;89.90;;;;;;5019475;28;20044;-69
2022/09/05 08:48:41;;;;;;;6.50;2.28;;;40.60;88.10;;;;;;5012317;28;20053;-68
2022/09/05 08:51:54;;;;;;;4.13;1.80;;;39.70;86.20;;;;;;5022377;28;20369;-69
2022/09/05 08:55:12;;;;;;;4.85;1.90;;;38.60;87.50;;;;;;5018196;28;20044;-69
2022/09/05 08:58:45;;;;;;;8.70;2.00;;;39.30;86.90;;;;;;5022963;28;20040;-69
2022/09/05 09:02:04;;;;;;;6.40;1.83;;;40.40;84.20;;;;;;5018574;28;20037;-68
2022/09/05 09:05:20;;;;;;;6.05;2.40;;;41.80;83.40;;;;;;5020336;28;20041;-69
2022/09/05 09:08:36;;;;;;;6.90;2.05;;;42.30;81.30;;;;;;5023414;28;20048;-68
2022/09/05 09:15:31;;;;;;;4.15;1.65;;;42.10;80.70;;;;;;5021040;28;20400;-69
2022/09/05 09:18:45;;;;;;;7.90;1.77;;;43.30;79.50;;;;;;5031829;28;20048;-70
2022/09/05 09:22:15;;;;;;;2.72;1.65;;;44.50;77.90;;;;;;5022242;28;20037;-67
2022/09/05 09:25:43;;;;;;;4.57;1.40;;;42.00;77.50;;;;;;5018195;28;20044;-68
2022/09/05 09:28:56;;;;;;;3.22;1.77;;;42.60;78.40;;;;;;5031977;28;20056;-69
2022/09/05 09:32:03;;;;;;;4.90;1.50;;;43.90;76.30;;;;;;5020366;28;20045;-68
2022/09/05 09:35:40;;;;;;;6.30;1.73;;;44.20;76.40;;;;;;5026277;28;20598;-69
2022/09/05 09:38:53;;;;;;;7.03;1.77;;;43.90;75.60;;;;;;5014012;28;20429;-69
2022/09/05 09:42:24;;;;;;;3.38;1.35;;;44.70;75.80;;;;;;5018464;28;20048;-68
2022/09/05 09:45:48;;;;;;;4.78;1.52;;;44.40;74.40;;;;;;5020134;28;20041;-69
2022/09/05 09:49:02;;;;;;;4.97;1.52;;;44.30;74.50;;;;;;5019964;28;20420;-68
2022/09/05 09:52:44;;;;;;;3.30;1.42;;;45.40;73.30;;;;;;5013894;28;20056;-68
2022/09/05 09:56:09;;;;;;;3.58;1.73;;;42.00;73.60;;;;;;5009410;28;20405;-68
2022/09/05 09:59:25;;;;;;;7.05;2.15;;;42.90;74.60;;;;;;5020327;28;20041;-68
2022/09/05 10:02:49;;;;;;;3.45;1.60;;;45.40;73.10;;;;;;5016548;28;20048;-69
2022/09/05 10:06:12;;;;;;;4.55;1.40;;;46.50;71.00;;;;;;5032550;28;20032;-68
2022/09/05 10:09:58;;;;;;;4.18;1.30;;;46.70;70.40;;;;;;5032355;28;20427;-68
2022/09/05 10:13:14;;;;;;;6.90;2.00;;;47.10;69.00;;;;;;4960521;28;20039;-68
2022/09/05 10:17:00;;;;;;;2.40;1.27;;;41.80;69.10;;;;;;4956745;28;20050;-68
2022/09/05 10:20:07;;;;;;;2.42;1.15;;;43.10;69.70;;;;;;5026409;28;20053;-69
2022/09/05 10:23:33;;;;;;;3.80;1.45;;;44.90;68.50;;;;;;5020369;28;20392;-68
2022/09/05 10:26:40;;;;;;;9.70;1.00;;;43.50;65.40;;;;;;5017294;28;20056;-69
2022/09/05 10:30:18;;;;;;;2.70;1.05;;;45.40;66.60;;;;;;5023383;28;20056;-68
2022/09/05 10:33:34;;;;;;;4.30;1.00;;;47.50;63.40;;;;;;5030856;28;20044;-68
2022/09/05 10:37:04;;;;;;;4.18;1.40;;;47.10;62.00;;;;;;5015808;28;20036;-68
2022/09/05 10:40:16;;;;;;;3.42;0.90;;;46.30;62.40;;;;;;5017294;28;20044;-68
2022/09/05 10:43:59;;;;;;;5.82;1.38;;;47.10;62.90;;;;;;5026453;28;20060;-68
2022/09/05 10:47:22;;;;;;;2.92;0.98;;;48.10;62.40;;;;;;5028104;28;20056;-66
2022/09/05 10:50:53;;;;;;;3.00;1.00;;;48.60;60.70;;;;;;5022563;28;20056;-65
2022/09/05 10:54:34;;;;;;;3.25;1.00;;;49.80;58.60;;;;;;5024833;28;20385;-66
2022/09/05 10:57:38;;;;;;;2.83;0.77;;;50.70;57.60;;;;;;5012481;28;20049;-66
2022/09/05 11:00:42;;;;;;;2.95;1.08;;;51.10;56.60;;;;;;5011517;28;20061;-67
2022/09/05 11:04:31;;;;;;;3.75;1.20;;;50.00;57.10;;;;;;5020264;28;20052;-66
2022/09/05 11:08:00;;;;;;;4.40;1.15;;;50.80;56.50;;;;;;5006693;28;20060;-67
2022/09/05 11:11:18;;;;;;;3.10;0.90;;;49.80;56.50;;;;;;5022227;28;20392;-69
2022/09/05 11:14:49;;;;;;;1.58;0.85;;;47.30;56.40;;;;;;5022906;28;20044;-68
2022/09/05 11:17:58;;;;;;;5.72;1.48;;;45.90;58.30;;;;;;5014520;28;20395;-69
2022/09/05 11:21:25;;;;;;;;;;;46.20;60.40;;;;;;5025169;28;20404;-69
2022/09/05 11:24:38;;;;;;;3.05;1.55;;;45.80;58.50;;;;;;4994172;28;19913;-69
2022/09/05 11:27:53;;;;;;;2.65;1.10;;;47.80;59.10;;;;;;5010636;28;20053;-68
2022/09/05 11:30:59;;;;;;;3.13;0.98;;;47.50;58.30;;;;;;5013771;28;20499;-67
2022/09/05 11:34:10;;;;;;;2.63;1.00;;;46.70;57.90;;;;;;5023430;28;20040;-68
2022/09/05 11:37:36;;;;;;;2.75;1.02;;;47.40;57.30;;;;;;5029715;28;20040;-68
2022/09/05 11:40:52;;;;;;;2.70;1.02;;;48.20;57.30;;;;;;5012240;28;20044;-68
2022/09/05 11:44:25;;;;;;;3.35;1.10;;;49.10;57.10;;;;;;5016241;28;20056;-68
2022/09/05 11:47:40;;;;;;;2.25;0.80;;;47.30;55.10;;;;;;5021031;28;20045;-68
2022/09/05 11:51:02;;;;;;;2.17;0.85;;;45.10;54.60;;;;;;5014683;28;20049;-68
2022/09/05 11:54:33;;;;;;;2.05;0.80;;;44.40;55.90;;;;;;5013401;28;20042;-67
2022/09/05 11:58:15;;;;;;;2.28;1.00;;;45.10;57.10;;;;;;5020051;28;20392;-69
2022/09/05 12:01:42;;;;;;;6.43;0.85;;;44.80;57.20;;;;;;5013323;28;20048;-67
2022/09/05 12:05:03;;;;;;;2.78;0.60;;;45.80;55.90;;;;;;5028794;28;20407;-67
2022/09/05 12:08:37;;;;;;;2.85;0.77;;;43.90;57.00;;;;;;5020216;28;20036;-69
2022/09/05 12:12:23;;;;;;;1.77;1.02;;;45.40;56.80;;;;;;5017171;28;20045;-69
2022/09/05 12:15:33;;;;;;;3.20;1.15;;;45.10;57.30;;;;;;5025882;28;20037;-68
2022/09/05 12:19:20;;;;;;;4.63;1.05;;;44.80;57.60;;;;;;5018567;28;20060;-69
2022/09/05 12:22:36;;;;;;;2.80;0.77;;;44.80;57.90;;;;;;5019357;28;20049;-68
2022/09/05 12:26:09;;;;;;;2.88;1.08;;;45.50;57.20;;;;;;5026751;28;20037;-69
2022/09/05 12:29:45;;;;;;;1.70;0.90;;;46.40;57.00;;;;;;5015339;28;20507;-68
2022/09/05 12:32:51;;;;;;;4.07;1.23;;;46.50;55.80;;;;;;5023287;28;20504;-68
2022/09/05 12:36:35;;;;;;;2.85;1.15;;;45.70;56.60;;;;;;5019279;28;20060;-68
2022/09/05 12:39:45;;;;;;;3.03;0.98;;;43.90;56.30;;;;;;5020666;28;20041;-67
2022/09/05 12:43:04;;;;;;;1.90;1.05;;;43.00;57.00;;;;;;5024084;28;20040;-67
2022/09/05 12:46:35;;;;;;;3.42;1.00;;;44.40;57.60;;;;;;5019023;28;20041;-68
2022/09/05 12:50:05;;;;;;;3.28;1.10;;;46.20;57.50;;;;;;5016217;28;20061;-68
2022/09/05 12:53:34;;;;;;;4.35;1.00;;;47.60;56.30;;;;;;5024009;28;20041;-68
2022/09/05 12:57:06;;;;;;;3.15;0.90;;;48.70;55.50;;;;;;5022724;28;20049;-69
2022/09/05 13:00:31;;;;;;;2.78;1.10;;;48.80;54.70;;;;;;5017321;28;20032;-67
2022/09/05 13:03:46;;;;;;;5.40;1.30;;;43.00;55.70;;;;;;5024143;28;20431;-67
2022/09/05 13:06:57;;;;;;;3.67;1.10;;;39.70;58.90;;;;;;5018103;28;20057;-67
2022/09/05 13:10:24;;;;;;;4.40;0.93;;;42.20;60.10;;;;;;5019218;28;20044;-67
2022/09/05 13:13:41;;;;;;;3.03;1.20;;;43.90;57.80;;;;;;5021475;28;20048;-68
2022/09/05 13:16:48;;;;;;;8.52;1.40;;;44.50;57.30;;;;;;5017852;28;20060;-68
2022/09/05 13:19:53;;;;;;;4.57;0.93;;;42.90;57.60;;;;;;5024373;28;20048;-67
2022/09/05 13:23:03;;;;;;;3.20;1.00;;;39.30;57.70;;;;;;5030721;28;20088;-67
2022/09/05 13:26:22;;;;;;;4.38;1.15;;;41.00;57.70;;;;;;5026614;28;20053;-68
2022/09/05 13:29:42;;;;;;;5.20;1.40;;;40.20;57.30;;;;;;5028743;28;20064;-68
2022/09/05 13:32:50;;;;;;;;;;;41.70;57.80;;;;;;5029644;28;20048;-68
2022/09/05 13:36:04;;;;;;;2.05;1.00;;;42.90;57.40;;;;;;5029503;28;19924;-67
2022/09/05 13:42:42;;;;;;;4.53;1.30;;;44.40;56.60;;;;;;5026609;28;20048;-67
2022/09/05 13:46:02;;;;;;;4.10;1.27;;;44.70;56.40;;;;;;5027789;28;20052;-67
2022/09/05 13:49:20;;;;;;;3.13;1.10;;;42.10;56.80;;;;;;5026690;28;20072;-69
2022/09/05 13:52:36;;;;;;;4.32;1.35;;;41.20;58.50;;;;;;5023164;28;20048;-66
2022/09/05 13:55:52;;;;;;;5.22;1.20;;;37.60;61.10;;;;;;5022312;28;20060;-68
2022/09/05 13:59:07;;;;;;;4.03;1.30;;;36.90;58.80;;;;;;5021968;28;20064;-68
2022/09/05 14:02:32;;;;;;;3.45;1.30;;;37.90;60.10;;;;;;5020610;28;20404;-67
2022/09/05 14:05:59;;;;;;;2.47;1.10;;;37.20;61.00;;;;;;5023908;28;20045;-67
2022/09/05 14:09:37;;;;;;;6.28;1.65;;;38.10;58.50;;;;;;5020354;28;20075;-67
2022/09/05 14:12:58;;;;;;;2.30;1.40;;;39.10;59.70;;;;;;5013060;28;20049;-67
2022/09/05 14:16:17;;;;;;;1.90;1.40;;;38.60;60.10;;;;;;5013601;28;20389;-68
2022/09/05 14:23:06;;;;;;;5.25;1.38;;;36.00;64.60;;;;;;5026530;28;20052;-67
2022/09/05 14:26:20;;;;;;;5.18;1.75;;;36.00;61.40;;;;;;5026682;28;20051;-68
2022/09/05 14:29:31;;;;;;;2.88;1.15;;;35.10;61.10;;;;;;5022910;28;20048;-67
2022/09/05 14:33:06;;;;;;;7.38;1.50;;;35.80;61.00;;;;;;5024007;28;20491;-67
2022/09/05 14:36:10;;;;;;;6.55;1.88;;;36.60;61.60;;;;;;5023437;28;20049;-67
2022/09/05 14:39:32;;;;;;;5.95;1.52;;;36.70;63.80;;;;;;5022025;28;20044;-67
2022/09/05 14:42:36;;;;;;;3.20;1.65;;;36.60;65.30;;;;;;5021247;28;20041;-67
2022/09/05 14:46:12;;;;;;;5.85;1.80;;;36.80;65.50;;;;;;5025931;28;20036;-68
2022/09/05 14:49:44;;;;;;;7.88;1.83;;;35.20;66.50;;;;;;5018466;28;20052;-67
2022/09/05 14:53:17;;;;;;;4.63;1.63;;;34.50;68.10;;;;;;5021341;28;20048;-68
2022/09/05 14:56:40;;;;;;;4.57;1.65;;;34.50;69.00;;;;;;5022553;28;20056;-67
2022/09/05 14:59:49;;;;;;;4.07;2.08;;;34.90;69.60;;;;;;5019482;28;20033;-66
2022/09/05 15:02:55;;;;;;;6.78;1.90;;;35.20;68.70;;;;;;5020057;28;20045;-66
2022/09/05 15:06:00;;;;;;;8.43;1.85;;;34.40;66.40;;;;;;5026636;28;20479;-68
2022/09/05 15:09:06;;;;;;;3.13;1.80;;;33.70;68.80;;;;;;5021478;28;20121;-66
2022/09/05 15:12:16;;;;;;;4.40;1.35;;;33.50;68.70;;;;;;5027432;28;20048;-67
2022/09/05 15:15:28;;;;;;;5.68;1.80;;;33.70;68.00;;;;;;5012740;28;20483;-67
2022/09/05 15:18:41;;;;;;;;;;;33.60;67.30;;;;;;5012695;28;20045;-69
2022/09/05 15:21:45;;;;;;;5.85;1.60;;;33.40;68.40;;;;;;5018710;28;19913;-68
2022/09/05 15:24:59;;;;;;;4.38;1.40;;;33.50;69.90;;;;;;5011157;28;20041;-69
2022/09/05 15:28:06;;;;;;;5.78;1.73;;;33.70;69.60;;;;;;5011764;28;20523;-68
2022/09/05 15:31:23;;;;;;;7.07;1.75;;;33.90;69.80;;;;;;5022067;28;20423;-68
2022/09/05 15:34:31;;;;;;;4.97;1.60;;;34.00;69.00;;;;;;5013367;28;20066;-67
2022/09/05 15:37:39;;;;;;;4.90;2.25;;;33.80;70.30;;;;;;5028250;28;20036;-68
2022/09/05 15:40:43;;;;;;;5.10;1.80;;;33.70;70.70;;;;;;5015743;28;20068;-68
2022/09/05 15:44:10;;;;;;;5.93;1.90;;;33.60;69.90;;;;;;5017291;28;20602;-67
2022/09/05 15:47:34;;;;;;;4.63;1.90;;;33.40;69.30;;;;;;5030371;28;20052;-68
2022/09/05 15:50:51;;;;;;;5.88;1.77;;;33.30;72.50;;;;;;5021553;28;20045;-67
2022/09/05 15:54:41;;;;;;;5.05;1.88;;;33.00;71.10;;;;;;5021688;28;20044;-68
2022/09/05 15:57:47;;;;;;;9.50;1.75;;;32.80;71.70;;;;;;5013285;28;20488;-68
2022/09/05 16:00:54;;;;;;;6.75;1.67;;;32.70;72.20;;;;;;5019626;28;20044;-68
2022/09/05 16:03:59;;;;;;;5.35;1.65;;;32.70;72.40;;;;;;5017895;28;20044;-68
2022/09/05 16:07:04;;;;;;;8.35;1.67;;;32.80;72.90;;;;;;5024512;28;20112;-68
2022/09/05 16:10:23;;;;;;;5.47;2.05;;;32.80;73.00;;;;;;5019163;28;20060;-68
2022/09/05 16:13:27;;;;;;;4.40;1.80;;;32.80;72.40;;;;;;5018389;28;20045;-69
2022/09/05 16:17:12;;;;;;;6.85;1.55;;;32.70;71.80;;;;;;5025776;28;20052;-69
2022/09/05 16:20:35;;;;;;;3.58;1.35;;;32.60;72.00;;;;;;5025187;28;20396;-68
2022/09/05 16:24:01;;;;;;;5.53;1.75;;;32.50;70.20;;;;;;5013867;28;20534;-68
2022/09/05 16:30:32;;;;;;;5.10;1.70;;;32.00;71.10;;;;;;5026477;28;20040;-68
2022/09/05 16:33:36;;;;;;;2.97;1.65;;;31.70;72.80;;;;;;5019219;28;20040;-68
2022/09/05 16:40:41;;;;;;;4.20;1.48;;;31.00;75.40;;;;;;5029609;28;20036;-69
2022/09/05 16:44:31;;;;;;;15.43;2.08;;;30.80;75.30;;;;;;5029532;28;20048;-68
2022/09/05 16:48:22;;;;;;;9.57;1.73;;;30.60;76.40;;;;;;5026121;28;20587;-68
2022/09/05 16:51:31;;;;;;;4.75;2.50;;;30.40;76.30;;;;;;5027322;28;20487;-68
2022/09/05 16:55:04;;;;;;;8.35;1.90;;;30.30;77.80;;;;;;5009665;28;20499;-68
2022/09/05 16:58:19;;;;;;;6.32;1.88;;;30.30;77.90;;;;;;5010080;28;20053;-68
2022/09/05 17:02:23;;;;;;;8.20;2.40;;;30.20;77.80;;;;;;5009492;28;20033;-68
2022/09/05 17:05:45;;;;;;;5.55;2.33;;;30.10;78.60;;;;;;5009717;28;20053;-68
2022/09/05 17:08:51;;;;;;;8.27;1.85;;;30.10;78.50;;;;;;5010264;28;20609;-68
2022/09/05 17:11:59;;;;;;;7.85;2.22;;;30.00;79.00;;;;;;5009888;28;20408;-68
2022/09/05 17:15:27;;;;;;;12.00;2.38;;;29.90;79.80;;;;;;5009683;28;20049;-68
2022/09/05 17:18:34;;;;;;;8.02;2.38;;;29.70;79.80;;;;;;5009758;28;20053;-68
2022/09/05 17:22:19;;;;;;;14.00;2.30;;;29.50;80.00;;;;;;5011801;28;20508;-68
2022/09/05 17:25:54;;;;;;;5.43;2.70;;;29.30;81.40;;;;;;5013577;28;20049;-67
2022/09/05 17:29:40;;;;;;;5.38;1.98;;;29.20;81.00;;;;;;5013318;28;20045;-68
2022/09/05 17:32:47;;;;;;;5.25;1.90;;;29.00;81.10;;;;;;5013052;28;20049;-68
2022/09/05 17:36:18;;;;;;;5.00;1.92;;;28.80;81.80;;;;;;5013017;28;20045;-68
2022/09/05 17:39:23;;;;;;;4.75;1.83;;;28.50;82.20;;;;;;5013073;28;20052;-67
2022/09/05 17:42:49;;;;;;;5.43;2.30;;;28.30;82.60;;;;;;5012978;28;20057;-67
2022/09/05 17:46:23;;;;;;;5.30;1.77;;;28.20;83.10;;;;;;5013034;28;20048;-68
2022/09/05 17:49:43;;;;;;;5.15;2.20;;;28.00;83.30;;;;;;5012313;28;20523;-68
2022/09/05 17:53:09;;;;;;;7.53;2.17;;;27.80;85.80;;;;;;5012828;28;20049;-68
2022/09/05 17:56:44;;;;;;;7.38;2.55;;;27.50;85.70;;;;;;5012846;28;20465;-68
2022/09/05 17:59:50;;;;;;;5.60;2.28;;;27.30;90.80;;;;;;5011429;28;20061;-68
2022/09/05 18:02:55;;;;;;;7.60;2.33;;;27.20;92.10;;;;;;5012879;28;20052;-68
2022/09/05 18:06:05;;;;;;;10.73;3.58;;;27.00;92.50;;;;;;5012575;28;20307;-68
2022/09/05 18:09:29;;;;;;;6.63;3.05;;;26.90;93.40;;;;;;5011886;28;20392;-68
2022/09/05 18:12:38;;;;;;;9.73;2.90;;;26.90;94.20;;;;;;5002367;28;20045;-68